Time;durP1;ratioP1;P1;durP2;ratioP2;P2;SDS_P1;SDS_P2;PMS_P1;PMS_P2;Temp;Humidity;BMP_temperature;BMP_pressure;BME280_temperature;BME280_humidity;BME280_pressure;Samples;Min_cycle;Max_cycle;Signal;HPM_P1;HPM_P2
2023/07/20 00:01:27;;;;;;;;;;;;;;;22.22;58.11;100608.81;4970021;28;4171;-66
2023/07/20 00:03:57;;;;;;;;;;;;;;;22.20;58.09;100605.84;4969926;28;4127;-66
2023/07/20 00:06:24;;;;;;;;;;;;;;;22.21;57.98;100606.56;4969296;28;4013;-66
2023/07/20 00:08:51;;;;;;;;;;;;;;;22.22;57.84;100616.72;4969802;28;4195;-66
2023/07/20 00:11:17;;;;;;;;;;;;;;;22.18;57.83;100620.91;4971438;28;4885;-66
2023/07/20 00:13:44;;;;;;;;;;;;;;;22.18;57.92;100615.16;4968268;28;4143;-66
2023/07/20 00:16:10;;;;;;;;;;;;;;;22.20;57.80;100611.59;4973551;28;4246;-66
2023/07/20 00:18:37;;;;;;;;;;;;;;;22.21;57.78;100606.56;4966969;28;4122;-66
2023/07/20 00:21:03;;;;;;;;;;;;;;;22.20;57.71;100613.75;4968727;28;4035;-66
2023/07/20 00:23:30;;;;;;;;;;;;;;;22.20;57.80;100611.59;4968174;28;4191;-66
2023/07/20 00:25:59;;;;;;;;;;;;;;;22.17;57.78;100615.81;4970827;28;3967;-66
2023/07/20 00:28:26;;;;;;;;;;;;;;;22.17;57.89;100622.34;4969624;28;4340;-66
2023/07/20 00:30:52;;;;;;;;;;;;;;;22.17;57.82;100621.56;4967022;28;4246;-66
2023/07/20 00:33:19;;;;;;;;;;;;;;;22.16;58.05;100623.72;4967222;28;4288;-66
2023/07/20 00:35:45;;;;;;;;;;;;;;;22.17;57.76;100612.91;4966424;28;5343;-66
2023/07/20 00:38:12;;;;;;;;;;;;;;;22.15;57.81;100610.72;4969117;28;4150;-66
2023/07/20 00:40:38;;;;;;;;;;;;;;;22.15;57.79;100610.72;4969872;28;4172;-66
2023/07/20 00:43:04;;;;;;;;;;;;;;;22.16;58.05;100615.06;4983196;28;5052;-66
2023/07/20 00:45:31;;;;;;;;;;;;;;;22.15;57.99;100615.72;4968290;28;4525;-66
2023/07/20 00:47:57;;;;;;;;;;;;;;;22.15;57.83;100618.59;4969305;28;4253;-66
2023/07/20 00:50:24;;;;;;;;;;;;;;;22.13;57.84;100613.53;4970495;28;4339;-66
2023/07/20 00:52:50;;;;;;;;;;;;;;;22.12;57.74;100612.03;4983937;28;4079;-66
2023/07/20 00:55:18;;;;;;;;;;;;;;;22.13;57.75;100619.31;4964602;28;4053;-66
2023/07/20 00:57:44;;;;;;;;;;;;;;;22.13;57.75;100613.53;4969774;28;4021;-66
2023/07/20 01:00:11;;;;;;;;;;;;;;;22.14;57.69;100620.03;4974277;28;4130;-66
2023/07/20 01:02:38;;;;;;;;;;;;;;;22.14;57.94;100620.75;4969143;28;4165;-66
2023/07/20 01:05:06;;;;;;;;;;;;;;;22.13;57.65;100615.69;4983147;28;4321;-66
2023/07/20 01:07:38;;;;;;;;;;;;;;;22.13;57.78;100622.19;4969809;28;4181;-66
2023/07/20 01:10:12;;;;;;;;;;;;;;;22.14;57.63;100615.00;4964899;28;4359;-66
2023/07/20 01:12:41;;;;;;;;;;;;;;;22.12;57.71;100617.81;4966788;28;4296;-66
2023/07/20 01:15:08;;;;;;;;;;;;;;;22.11;57.79;100613.47;4968551;28;5133;-66
2023/07/20 01:17:35;;;;;;;;;;;;;;;22.11;57.75;100616.34;4980781;28;4158;-66
2023/07/20 01:20:01;;;;;;;;;;;;;;;22.10;58.00;100603.31;4971660;28;4101;-66
2023/07/20 01:22:47;;;;;;;;;;;;;;;22.10;57.74;100609.06;4966593;28;4242;-66
2023/07/20 01:25:31;;;;;;;;;;;;;;;22.10;57.75;100614.84;4964607;28;4387;-66
2023/07/20 01:28:17;;;;;;;;;;;;;;;22.09;57.82;100606.88;4998021;28;4143;-66
2023/07/20 01:30:45;;;;;;;;;;;;;;;22.05;58.08;100616.13;4964598;28;4054;-66
2023/07/20 01:33:13;;;;;;;;;;;;;;;22.09;58.01;100612.66;4967530;28;4117;-66
2023/07/20 01:35:39;;;;;;;;;;;;;;;22.08;57.80;100617.69;4967005;28;4195;-66
2023/07/20 01:38:05;;;;;;;;;;;;;;;22.08;57.80;100617.69;4950982;28;4403;-66
2023/07/20 01:40:32;;;;;;;;;;;;;;;22.08;57.82;100620.56;4966972;28;4049;-66
2023/07/20 01:42:58;;;;;;;;;;;;;;;22.08;57.72;100617.69;4990444;28;4196;-66
2023/07/20 01:45:25;;;;;;;;;;;;;;;22.08;57.87;100616.91;4968076;28;4143;-66
2023/07/20 01:47:52;;;;;;;;;;;;;;;22.07;57.86;100621.22;4966835;28;4533;-66
2023/07/20 01:50:18;;;;;;;;;;;;;;;22.05;58.03;100606.72;4965375;28;4138;-66
2023/07/20 01:52:45;;;;;;;;;;;;;;;22.07;57.94;100613.31;4969118;28;4261;-66
2023/07/20 01:55:11;;;;;;;;;;;;;;;22.04;58.04;100608.88;4970891;28;4058;-66
2023/07/20 01:57:37;;;;;;;;;;;;;;;22.03;57.93;100609.53;4966268;28;4360;-66
2023/07/20 02:00:04;;;;;;;;;;;;;;;22.04;57.69;100611.75;4969927;28;4032;-66
2023/07/20 02:02:39;;;;;;;;;;;;;;;22.06;57.95;100606.06;4966609;28;4050;-66
2023/07/20 02:05:06;;;;;;;;;;;;;;;22.06;57.68;100620.50;4986280;28;4064;-66
2023/07/20 02:07:33;;;;;;;;;;;;;;;22.06;57.75;100614.72;4968312;28;4201;-74
2023/07/20 02:09:59;;;;;;;;;;;;;;;22.04;57.65;100617.53;4964200;28;4518;-66
2023/07/20 02:12:25;;;;;;;;;;;;;;;22.03;57.92;100610.28;4966518;28;4168;-70
2023/07/20 02:14:52;;;;;;;;;;;;;;;22.06;57.73;100617.59;4967781;28;4265;-71
2023/07/20 02:17:19;;;;;;;;;;;;;;;22.06;57.72;100613.97;4967404;28;4155;-71
2023/07/20 02:19:46;;;;;;;;;;;;;;;22.04;57.96;100617.53;4969630;28;4138;-71
2023/07/20 02:22:13;;;;;;;;;;;;;;;22.05;57.97;100618.25;4973378;28;4082;-71
2023/07/20 02:24:39;;;;;;;;;;;;;;;22.04;57.68;100629.06;4965367;28;4149;-71
2023/07/20 02:27:06;;;;;;;;;;;;;;;22.06;57.92;100622.63;4984976;28;4155;-71
2023/07/20 02:29:33;;;;;;;;;;;;;;;22.04;57.77;100623.28;4965799;28;4397;-72
2023/07/20 02:32:00;;;;;;;;;;;;;;;22.03;57.89;100621.81;4965231;28;4035;-71
2023/07/20 02:34:26;;;;;;;;;;;;;;;22.05;57.95;100618.25;4964122;28;4176;-71
2023/07/20 02:36:53;;;;;;;;;;;;;;;22.02;57.76;100619.59;4967445;28;4343;-71
2023/07/20 02:39:19;;;;;;;;;;;;;;;22.02;57.88;100620.34;4967079;28;4233;-71
2023/07/20 02:41:46;;;;;;;;;;;;;;;22.03;57.93;100621.81;4971002;28;4416;-71
2023/07/20 02:44:13;;;;;;;;;;;;;;;22.03;57.67;100627.56;4984070;28;4204;-71
2023/07/20 02:46:40;;;;;;;;;;;;;;;22.04;57.69;100623.28;4971932;28;4140;-71
2023/07/20 02:49:07;;;;;;;;;;;;;;;22.03;57.78;100624.69;4964479;28;4219;-71
2023/07/20 02:51:33;;;;;;;;;;;;;;;22.04;57.75;100643.47;4964369;28;4195;-71
2023/07/20 02:54:00;;;;;;;;;;;;;;;22.04;57.94;100631.94;4982573;28;4111;-71
2023/07/20 02:56:26;;;;;;;;;;;;;;;22.02;57.61;100637.63;4962923;28;4407;-71
2023/07/20 02:58:53;;;;;;;;;;;;;;;22.02;57.69;100637.63;4967784;28;4214;-71
2023/07/20 03:01:19;;;;;;;;;;;;;;;22.03;57.84;100639.09;4978839;28;4056;-71
2023/07/20 03:03:46;;;;;;;;;;;;;;;22.03;57.70;100633.34;4964809;28;4284;-71
2023/07/20 03:06:14;;;;;;;;;;;;;;;22.03;57.78;100633.34;4967452;28;3984;-71
2023/07/20 03:08:41;;;;;;;;;;;;;;;22.02;57.88;100637.63;4966310;28;4232;-71
2023/07/20 03:11:08;;;;;;;;;;;;;;;22.03;57.87;100638.38;4967942;28;4272;-71
2023/07/20 03:13:34;;;;;;;;;;;;;;;22.00;58.09;100643.34;4980221;28;4223;-71
2023/07/20 03:16:01;;;;;;;;;;;;;;;22.01;57.93;100647.69;4965107;28;4165;-71
2023/07/20 03:18:28;;;;;;;;;;;;;;;22.02;57.74;100642.66;4980920;28;4133;-71
2023/07/20 03:20:54;;;;;;;;;;;;;;;21.99;58.14;100638.22;4964109;28;4149;-71
2023/07/20 03:23:21;;;;;;;;;;;;;;;22.00;57.97;100640.44;4965145;28;4158;-71
2023/07/20 03:25:47;;;;;;;;;;;;;;;21.99;58.08;100644.75;4965533;28;4169;-71
2023/07/20 03:28:15;;;;;;;;;;;;;;;21.99;58.11;100644.75;4978671;28;4205;-70
2023/07/20 03:30:41;;;;;;;;;;;;;;;22.01;57.90;100653.44;4980765;28;4153;-71
2023/07/20 03:33:08;;;;;;;;;;;;;;;22.09;57.82;100653.75;4966738;28;5081;-70
2023/07/20 03:35:34;;;;;;;;;;;;;;;22.16;57.39;100652.56;4976239;28;4245;-70
2023/07/20 03:38:04;;;;;;;;;;;;;;;22.03;57.97;100653.53;4961411;28;4075;-70
2023/07/20 03:40:30;;;;;;;;;;;;;;;22.02;58.10;100660.72;4984119;28;4152;-69
2023/07/20 03:42:57;;;;;;;;;;;;;;;22.02;57.96;100654.22;4965543;28;5157;-70
2023/07/20 03:45:23;;;;;;;;;;;;;;;21.98;58.11;100660.56;4963346;28;4150;-70
2023/07/20 03:47:50;;;;;;;;;;;;;;;22.00;58.12;100654.88;4969668;28;4504;-70
2023/07/20 03:50:16;;;;;;;;;;;;;;;22.03;58.02;100667.19;4968057;28;4158;-70
2023/07/20 03:52:43;;;;;;;;;;;;;;;21.98;58.20;100659.81;4966349;28;4000;-70
2023/07/20 03:55:10;;;;;;;;;;;;;;;21.96;58.14;100669.13;4964963;28;4206;-70
2023/07/20 03:57:36;;;;;;;;;;;;;;;21.98;58.06;100665.59;4966589;28;4536;-70
2023/07/20 04:00:06;;;;;;;;;;;;;;;21.96;58.40;100669.13;4970727;28;4173;-70
2023/07/20 04:02:38;;;;;;;;;;;;;;;21.96;58.15;100669.13;4970084;28;4088;-70
2023/07/20 04:05:04;;;;;;;;;;;;;;;21.96;58.37;100666.25;4966718;28;4340;-70
2023/07/20 04:07:30;;;;;;;;;;;;;;;21.93;58.36;100668.31;4967085;28;4236;-70
2023/07/20 04:09:57;;;;;;;;;;;;;;;21.95;58.18;100659.00;4966302;28;4377;-70
2023/07/20 04:12:23;;;;;;;;;;;;;;;21.98;58.35;100659.81;4967232;28;4753;-70
2023/07/20 04:14:50;;;;;;;;;;;;;;;21.94;58.42;100666.16;4982004;28;4239;-70
2023/07/20 04:17:16;;;;;;;;;;;;;;;21.98;58.39;100660.56;4970151;28;4132;-70
2023/07/20 04:19:43;;;;;;;;;;;;;;;21.95;58.44;100662.63;4970267;28;4593;-70
2023/07/20 04:22:09;;;;;;;;;;;;;;;21.97;58.42;100670.63;4968380;28;4229;-70
2023/07/20 04:24:36;;;;;;;;;;;;;;;21.95;58.38;100667.66;4968828;28;4333;-70
2023/07/20 04:27:02;;;;;;;;;;;;;;;21.94;58.54;100674.81;4966117;28;4071;-70
2023/07/20 04:29:28;;;;;;;;;;;;;;;21.95;58.54;100673.44;4969919;28;4215;-70
2023/07/20 04:31:55;;;;;;;;;;;;;;;21.96;58.22;100674.88;4962507;28;4108;-70
2023/07/20 04:34:22;;;;;;;;;;;;;;;21.95;58.25;100668.38;4979583;28;4236;-69
2023/07/20 04:36:49;;;;;;;;;;;;;;;21.96;58.24;100672.75;4973129;28;4126;-70
2023/07/20 04:39:17;;;;;;;;;;;;;;;22.00;58.06;100669.28;4978784;28;4104;-70
2023/07/20 04:41:58;;;;;;;;;;;;;;;21.96;58.50;100680.66;4988438;28;4202;-70
2023/07/20 04:44:25;;;;;;;;;;;;;;;21.95;58.56;100684.97;4968231;28;4572;-70
2023/07/20 04:46:51;;;;;;;;;;;;;;;21.94;58.34;100677.69;4999864;28;4235;-71
2023/07/20 04:49:18;;;;;;;;;;;;;;;21.93;58.57;100679.84;4962514;28;4188;-70
2023/07/20 04:51:45;;;;;;;;;;;;;;;21.96;58.43;100681.38;4973970;28;4028;-70
2023/07/20 04:54:11;;;;;;;;;;;;;;;21.97;58.29;100682.16;4967864;28;4370;-70
2023/07/20 04:56:38;;;;;;;;;;;;;;;21.97;58.19;100687.91;4980628;28;4107;-70
2023/07/20 04:59:07;;;;;;;;;;;;;;;21.95;58.59;100679.19;4966330;28;4177;-70
2023/07/20 05:01:34;;;;;;;;;;;;;;;21.94;58.57;100683.47;4998703;28;4121;-70
2023/07/20 05:04:00;;;;;;;;;;;;;;;21.94;58.58;100680.56;5000729;28;4053;-70
2023/07/20 05:06:27;;;;;;;;;;;;;;;21.94;58.42;100690.00;4964459;28;4559;-69
2023/07/20 05:08:53;;;;;;;;;;;;;;;21.94;58.35;100683.47;4965993;28;4154;-70
2023/07/20 05:11:20;;;;;;;;;;;;;;;21.95;58.63;100679.94;4965312;28;3963;-69
2023/07/20 05:13:46;;;;;;;;;;;;;;;21.97;58.25;100687.91;4969617;28;4206;-70
2023/07/20 05:16:13;;;;;;;;;;;;;;;22.02;58.42;100692.41;4967264;28;4352;-70
2023/07/20 05:18:39;;;;;;;;;;;;;;;22.01;58.49;100685.16;4983893;28;4522;-70
2023/07/20 05:21:07;;;;;;;;;;;;;;;22.01;58.29;100688.03;4968646;28;4227;-69
2023/07/20 05:23:33;;;;;;;;;;;;;;;21.98;58.34;100686.50;4988663;28;4040;-72
2023/07/20 05:26:00;;;;;;;;;;;;;;;21.81;59.40;100698.84;4971173;28;4074;-72
2023/07/20 05:28:27;;;;;;;;;;;;;;;21.40;61.73;100700.88;4967165;28;4101;-73
2023/07/20 05:30:53;;;;;;;;;;;;;;;21.21;62.61;100695.75;4969129;28;4143;-74
2023/07/20 05:33:20;;;;;;;;;;;;;;;21.10;63.55;100704.00;4973278;28;4026;-75
2023/07/20 05:35:46;;;;;;;;;;;;;;;20.98;63.62;100706.38;4969328;28;4145;-74
2023/07/20 05:38:13;;;;;;;;;;;;;;;21.00;63.74;100705.72;4969816;28;4062;-75
2023/07/20 05:40:43;;;;;;;;;;;;;;;20.98;63.90;100706.38;4968886;28;4187;-74
2023/07/20 05:43:10;;;;;;;;;;;;;;;20.93;64.07;100711.19;4967390;28;4051;-73
2023/07/20 05:45:36;;;;;;;;;;;;;;;20.89;64.35;100711.06;4971472;28;4125;-74
2023/07/20 05:48:03;;;;;;;;;;;;;;;20.82;64.72;100712.19;4967834;28;4219;-75
2023/07/20 05:50:29;;;;;;;;;;;;;;;20.84;64.56;100720.91;4965430;28;4134;-74
2023/07/20 05:52:56;;;;;;;;;;;;;;;20.82;64.36;100717.97;4968488;28;4047;-73
2023/07/20 05:55:22;;;;;;;;;;;;;;;20.79;64.62;100719.25;4965467;28;4647;-73
2023/07/20 05:57:49;;;;;;;;;;;;;;;20.90;64.28;100721.16;4966789;28;4199;-72
2023/07/20 06:00:18;;;;;;;;;;;;;;;20.92;64.19;100729.88;4962202;28;4393;-72
2023/07/20 06:02:46;;;;;;;;;;;;;;;21.16;62.98;100720.75;4969282;28;4181;-72
2023/07/20 06:05:12;;;;;;;;;;;;;;;21.36;62.04;100731.63;4968471;28;4305;-72
2023/07/20 06:07:39;;;;;;;;;;;;;;;21.48;61.49;100723.50;4967958;28;4075;-72
2023/07/20 06:10:05;;;;;;;;;;;;;;;21.55;61.18;100730.97;4971588;28;4272;-72
2023/07/20 06:12:35;;;;;;;;;;;;;;;21.61;61.02;100727.63;4969195;28;4513;-72
2023/07/20 06:15:02;;;;;;;;;;;;;;;21.64;60.52;100721.25;4975519;28;4097;-72
2023/07/20 06:17:28;;;;;;;;;;;;;;;21.67;60.45;100722.06;4969079;28;4544;-71
2023/07/20 06:19:54;;;;;;;;;;;;;;;21.69;60.51;100733.69;4969630;28;4702;-72
2023/07/20 06:22:21;;;;;;;;;;;;;;;21.71;59.89;100734.50;4967676;28;5146;-71
2023/07/20 06:24:47;;;;;;;;;;;;;;;21.66;60.32;100735.75;4978296;28;4170;-73
2023/07/20 06:27:14;;;;;;;;;;;;;;;21.19;61.79;100742.50;4973856;28;4178;-68
2023/07/20 06:29:40;;;;;;;;;;;;;;;20.65;63.33;100741.66;4959914;28;4193;-69
2023/07/20 06:32:07;;;;;;;;;;;;;;;20.55;64.31;100746.94;4960013;28;4204;-74
2023/07/20 06:34:36;;;;;;;;;;;;;;;20.47;63.86;100736.56;4966255;28;4149;-70
2023/07/20 06:37:04;;;;;;;;;;;;;;;20.51;63.98;100731.00;4963155;28;4183;-66
2023/07/20 06:39:30;;;;;;;;;;;;;;;20.64;63.48;100731.56;4965244;28;4310;-64
2023/07/20 06:42:00;;;;;;;;;;;;;;;20.59;63.94;100730.66;4965572;28;5025;-66
2023/07/20 06:44:26;;;;;;;;;;;;;;;20.04;65.59;100737.56;4965190;28;4508;-65
2023/07/20 06:46:52;;;;;;;;;;;;;;;20.09;65.98;100733.47;4971567;28;4143;-65
2023/07/20 06:49:25;;;;;;;;;;;;;;;20.16;65.71;100748.09;4966466;28;4481;-65
2023/07/20 06:51:52;;;;;;;;;;;;;;;20.00;65.41;100743.09;4966884;28;4171;-67
2023/07/20 06:54:18;;;;;;;;;;;;;;;20.30;65.12;100743.00;4965708;28;4257;-67
2023/07/20 06:56:49;;;;;;;;;;;;;;;20.05;64.98;100738.28;4962398;28;4182;-66
2023/07/20 06:59:35;;;;;;;;;;;;;;;20.38;64.37;100733.97;4968967;28;4163;-66
2023/07/20 07:02:07;;;;;;;;;;;;;;;20.70;63.41;100737.56;4971446;28;4119;-66
2023/07/20 07:04:39;;;;;;;;;;;;;;;20.84;62.40;100738.16;4979261;28;4153;-67
2023/07/20 07:07:06;;;;;;;;;;;;;;;20.88;62.80;100738.34;4968282;28;4273;-68
2023/07/20 07:09:32;;;;;;;;;;;;;;;21.01;61.48;100733.13;4963485;28;4434;-67
2023/07/20 07:11:59;;;;;;;;;;;;;;;20.86;62.19;100746.88;4965891;28;4242;-66
2023/07/20 07:14:25;;;;;;;;;;;;;;;20.77;61.51;100753.69;4968175;28;4106;-67
2023/07/20 07:16:53;;;;;;;;;;;;;;;20.56;61.50;100748.44;4962332;28;4069;-67
2023/07/20 07:19:23;;;;;;;;;;;;;;;20.88;61.70;100749.84;4968264;28;3986;-73
2023/07/20 07:21:50;;;;;;;;;;;;;;;20.45;61.88;100742.22;4976832;28;4194;-68
2023/07/20 07:24:17;;;;;;;;;;;;;;;20.97;60.92;100735.81;4965292;28;4507;-68
2023/07/20 07:26:45;;;;;;;;;;;;;;;21.20;61.20;100738.22;4962336;28;4168;-68
2023/07/20 07:29:12;;;;;;;;;;;;;;;21.21;60.15;100742.59;4966176;28;4133;-67
2023/07/20 07:31:38;;;;;;;;;;;;;;;20.97;60.85;100739.44;4974410;28;4123;-67
2023/07/20 07:34:05;;;;;;;;;;;;;;;20.87;61.02;100741.91;4970830;28;4006;-67
2023/07/20 07:36:31;;;;;;;;;;;;;;;20.88;60.41;100743.38;4975780;28;4189;-67
2023/07/20 07:38:58;;;;;;;;;;;;;;;21.19;59.17;100748.25;4975755;28;4309;-67
2023/07/20 07:41:27;;;;;;;;;;;;;;;21.44;58.71;100740.63;4972913;28;4044;-66
2023/07/20 07:43:53;;;;;;;;;;;;;;;20.74;59.22;100743.50;4972623;28;4055;-68
2023/07/20 07:46:20;;;;;;;;;;;;;;;20.74;58.89;100745.63;4965300;28;3926;-67
2023/07/20 07:48:47;;;;;;;;;;;;;;;20.41;58.46;100744.94;4971333;28;4038;-67
2023/07/20 07:51:14;;;;;;;;;;;;;;;20.72;58.40;100749.16;4973481;28;4349;-69
2023/07/20 07:53:40;;;;;;;;;;;;;;;20.67;58.69;100753.28;4979555;28;3975;-69
2023/07/20 07:56:07;;;;;;;;;;;;;;;20.79;58.01;100753.78;4977237;28;4138;-69
2023/07/20 07:58:34;;;;;;;;;;;;;;;21.04;57.79;100755.56;4984392;28;6633;-69
2023/07/20 08:01:01;;;;;;;;;;;;;;;21.00;58.18;100758.25;4974247;28;4418;-73
2023/07/20 08:03:27;;;;;;;;;;;;;;;20.96;57.92;100760.22;4970354;28;4104;-72
2023/07/20 08:05:57;;;;;;;;;;;;;;;21.31;58.07;100760.28;4970980;28;4526;-71
2023/07/20 08:08:23;;;;;;;;;;;;;;;21.48;56.82;100773.22;4970082;28;4072;-75
2023/07/20 08:10:50;;;;;;;;;;;;;;;20.33;58.33;100764.69;4977966;28;4217;-75
2023/07/20 08:13:16;;;;;;;;;;;;;;;20.76;58.58;100775.25;4974656;28;4030;-81
2023/07/20 08:15:46;;;;;;;;;;;;;;;21.37;57.10;100767.66;4970864;28;4310;-66
2023/07/20 08:18:12;;;;;;;;;;;;;;;21.17;58.05;100771.22;4987503;28;4217;-67
2023/07/20 08:20:39;;;;;;;;;;;;;;;20.78;58.64;100775.34;4971644;28;4147;-70
2023/07/20 08:23:05;;;;;;;;;;;;;;;21.42;57.03;100764.34;4970425;28;4126;-68
2023/07/20 08:25:31;;;;;;;;;;;;;;;21.18;56.65;100769.06;4972354;28;4230;-74
2023/07/20 08:28:00;;;;;;;;;;;;;;;21.23;56.60;100765.69;4971886;28;3951;-75
2023/07/20 08:30:27;;;;;;;;;;;;;;;21.26;56.29;100764.38;4975695;28;4337;-78
2023/07/20 08:32:53;;;;;;;;;;;;;;;21.15;56.42;100771.13;4990826;28;4006;-74
2023/07/20 08:35:20;;;;;;;;;;;;;;;21.17;56.60;100774.09;4970813;28;4351;-73
2023/07/20 08:37:48;;;;;;;;;;;;;;;19.90;59.05;100779.97;4981213;28;4351;-75
2023/07/20 08:40:14;;;;;;;;;;;;;;;19.20;59.26;100782.38;4978144;28;4004;-71
2023/07/20 08:42:41;;;;;;;;;;;;;;;20.19;58.18;100775.56;4975179;28;4039;-69
2023/07/20 08:45:08;;;;;;;;;;;;;;;20.35;56.69;100776.28;4989906;28;4211;-70
2023/07/20 08:47:34;;;;;;;;;;;;;;;20.51;57.45;100782.78;4983563;28;4046;-70
2023/07/20 08:50:01;;;;;;;;;;;;;;;20.23;59.85;100772.88;4973356;28;4002;-72
2023/07/20 08:52:27;;;;;;;;;;;;;;;20.24;57.88;100777.22;4983531;28;4258;-71
2023/07/20 08:54:54;;;;;;;;;;;;;;;19.03;59.37;100775.09;4983698;28;4182;-72
2023/07/20 08:57:21;;;;;;;;;;;;;;;19.58;57.63;100774.16;4981261;28;4304;-72
2023/07/20 08:59:47;;;;;;;;;;;;;;;20.77;55.34;100768.06;4981816;28;4041;-72
2023/07/20 09:02:15;;;;;;;;;;;;;;;19.61;57.04;100758.50;4977943;28;4214;-72
2023/07/20 09:04:45;;;;;;;;;;;;;;;20.24;56.81;100771.47;4961199;28;4153;-68
2023/07/20 09:07:11;;;;;;;;;;;;;;;20.81;55.37;100762.50;4969408;28;4059;-71
2023/07/20 09:09:41;;;;;;;;;;;;;;;21.15;53.95;100767.50;4973066;28;4107;-71
2023/07/20 09:12:15;;;;;;;;;;;;;;;21.10;54.34;100775.25;4969936;28;4455;-73
2023/07/20 09:14:44;;;;;;;;;;;;;;;21.21;54.09;100767.75;4967436;28;4495;-71
2023/07/20 09:17:14;;;;;;;;;;;;;;;21.38;53.07;100769.16;4969211;28;4441;-74
2023/07/20 09:19:47;;;;;;;;;;;;;;;21.40;53.09;100763.50;4967319;28;4105;-72
2023/07/20 09:22:13;;;;;;;;;;;;;;;21.24;53.35;100769.31;4969587;28;4032;-75
2023/07/20 09:24:41;;;;;;;;;;;;;;;20.92;53.17;100766.56;4970178;28;4179;-75
2023/07/20 09:27:09;;;;;;;;;;;;;;;21.00;53.63;100766.91;4969168;28;4042;-78
2023/07/20 09:29:42;;;;;;;;;;;;;;;21.03;53.65;100767.75;4971410;28;4225;-73
2023/07/20 09:32:09;;;;;;;;;;;;;;;20.75;54.64;100788.13;4977505;28;4097;-77
2023/07/20 09:34:49;;;;;;;;;;;;;;;20.69;54.89;100782.88;4967105;28;4226;-78
2023/07/20 09:37:19;;;;;;;;;;;;;;;20.86;54.35;100781.41;4974202;28;4282;-76
2023/07/20 09:39:46;;;;;;;;;;;;;;;20.85;54.18;100793.59;4964066;28;4376;-78
2023/07/20 09:42:15;;;;;;;;;;;;;;;20.98;54.37;100797.72;4966223;28;4023;-74
2023/07/20 09:44:44;;;;;;;;;;;;;;;21.10;54.07;100792.50;4962937;28;4333;-75
2023/07/20 09:47:21;;;;;;;;;;;;;;;21.18;54.36;100792.84;4969969;28;3924;-74
2023/07/20 09:49:58;;;;;;;;;;;;;;;20.86;54.47;100795.81;4974091;28;4187;-72
2023/07/20 09:52:27;;;;;;;;;;;;;;;21.30;54.19;100802.00;4964980;28;4186;-70
2023/07/20 09:54:57;;;;;;;;;;;;;;;21.00;54.53;100801.44;4964106;28;4038;-71
2023/07/20 09:57:23;;;;;;;;;;;;;;;20.96;54.76;100797.66;4963614;28;4144;-70
2023/07/20 09:59:50;;;;;;;;;;;;;;;20.90;55.47;100798.88;4969288;28;4030;-70
2023/07/20 10:02:23;;;;;;;;;;;;;;;20.92;55.95;100801.84;4967318;28;4010;-75
2023/07/20 10:04:51;;;;;;;;;;;;;;;20.77;55.91;100802.63;4964612;28;4217;-81
2023/07/20 10:07:20;;;;;;;;;;;;;;;20.74;56.36;100798.19;4970396;28;4314;-79
2023/07/20 10:09:47;;;;;;;;;;;;;;;21.13;56.08;100794.81;4966997;28;4141;-78
2023/07/20 10:12:13;;;;;;;;;;;;;;;21.41;55.32;100796.69;4972153;28;4449;-75
2023/07/20 10:14:44;;;;;;;;;;;;;;;21.24;55.16;100801.75;4971778;28;4154;-73
2023/07/20 10:17:12;;;;;;;;;;;;;;;21.50;55.18;100796.34;4997772;28;3959;-75
2023/07/20 10:19:48;;;;;;;;;;;;;;;21.29;55.73;100802.66;4965380;28;4057;-74
2023/07/20 10:22:25;;;;;;;;;;;;;;;20.88;56.50;100801.66;4975769;28;4228;-72
2023/07/20 10:24:53;;;;;;;;;;;;;;;21.27;56.04;100800.41;4963072;28;4130;-74
2023/07/20 10:27:20;;;;;;;;;;;;;;;21.29;55.95;100794.75;4967399;28;4095;-74
2023/07/20 10:29:47;;;;;;;;;;;;;;;20.84;56.73;100801.47;4967387;28;4053;-75
2023/07/20 10:32:13;;;;;;;;;;;;;;;20.95;55.82;100794.03;4980661;28;4299;-78
2023/07/20 10:34:40;;;;;;;;;;;;;;;21.14;56.08;100798.41;4963144;28;4150;-80
2023/07/20 10:37:07;;;;;;;;;;;;;;;21.38;55.91;100803.75;4965499;28;4049;-78
2023/07/20 10:39:33;;;;;;;;;;;;;;;20.98;56.45;100791.97;4970484;28;4290;-77
2023/07/20 10:42:06;;;;;;;;;;;;;;;21.15;56.32;100799.19;4970016;28;4329;-76
2023/07/20 10:44:33;;;;;;;;;;;;;;;21.59;55.58;100794.53;4967693;28;4515;-75
2023/07/20 10:47:00;;;;;;;;;;;;;;;20.47;57.98;100796.97;4968643;28;4294;-77
2023/07/20 10:49:27;;;;;;;;;;;;;;;20.78;57.59;100804.13;4968956;28;4502;-72
2023/07/20 10:51:58;;;;;;;;;;;;;;;21.14;56.83;100798.41;4974110;28;4151;-80
2023/07/20 10:54:27;;;;;;;;;;;;;;;21.16;56.91;100801.38;4968866;28;4452;-82
2023/07/20 10:56:54;;;;;;;;;;;;;;;21.23;57.30;100793.75;4969328;28;4131;-82
2023/07/20 10:59:24;;;;;;;;;;;;;;;20.87;57.45;100800.19;4969259;28;4397;-73
2023/07/20 11:02:01;;;;;;;;;;;;;;;20.66;58.88;100804.31;4974319;28;4069;-73
2023/07/20 11:04:40;;;;;;;;;;;;;;;20.63;59.30;100804.88;4967377;28;4128;-73
2023/07/20 11:07:06;;;;;;;;;;;;;;;20.92;59.80;100810.47;4969527;28;4194;-72
2023/07/20 11:09:36;;;;;;;;;;;;;;;21.11;59.87;100808.38;4969052;28;4088;-73
2023/07/20 11:12:12;;;;;;;;;;;;;;;20.53;60.65;100810.91;4983218;28;4147;-77
2023/07/20 11:14:43;;;;;;;;;;;;;;;20.75;61.74;100811.16;4966429;28;4107;-77
2023/07/20 11:17:13;;;;;;;;;;;;;;;21.11;59.88;100802.63;4966445;28;3970;-76
2023/07/20 11:19:40;;;;;;;;;;;;;;;21.31;59.45;100806.34;4968466;28;4132;-79
2023/07/20 11:22:09;;;;;;;;;;;;;;;21.18;58.56;100798.59;4967229;28;4037;-80
2023/07/20 11:24:39;;;;;;;;;;;;;;;21.36;58.61;100803.66;4970160;28;4131;-75
2023/07/20 11:27:05;;;;;;;;;;;;;;;21.45;57.91;100796.84;4972359;28;4877;-76
2023/07/20 11:29:32;;;;;;;;;;;;;;;21.50;57.98;100801.38;4975408;28;4233;-77
2023/07/20 11:32:00;;;;;;;;;;;;;;;21.65;57.35;100791.91;4969791;28;4332;-77
2023/07/20 11:34:27;;;;;;;;;;;;;;;21.74;56.86;100790.84;4968019;28;4203;-78
2023/07/20 11:36:54;;;;;;;;;;;;;;;21.78;56.34;100793.13;4970021;28;4302;-73
2023/07/20 11:39:26;;;;;;;;;;;;;;;21.70;55.89;100798.56;4967381;28;4049;-72
2023/07/20 11:41:53;;;;;;;;;;;;;;;21.67;55.55;100794.88;4970254;28;4093;-78
2023/07/20 11:44:26;;;;;;;;;;;;;;;21.82;55.57;100786.78;4970971;28;4204;-80
2023/07/20 11:47:08;;;;;;;;;;;;;;;21.79;55.56;100788.13;4972962;28;4126;-79
2023/07/20 11:49:40;;;;;;;;;;;;;;;21.79;55.03;100788.13;4970752;28;4213;-75
2023/07/20 11:52:07;;;;;;;;;;;;;;;21.74;54.56;100782.19;4971331;28;4178;-77
2023/07/20 11:54:34;;;;;;;;;;;;;;;21.87;54.48;100794.19;4968650;28;4032;-76
2023/07/20 11:57:01;;;;;;;;;;;;;;;21.92;54.14;100784.28;5005205;28;3970;-79
2023/07/20 11:59:27;;;;;;;;;;;;;;;22.09;52.74;100777.00;4978467;28;4236;-74
2023/07/20 12:01:53;;;;;;;;;;;;;;;22.23;52.38;100788.38;4973105;28;4048;-77
2023/07/20 12:04:22;;;;;;;;;;;;;;;22.21;52.14;100789.03;4966637;28;4376;-78
2023/07/20 12:06:49;;;;;;;;;;;;;;;22.17;51.96;100792.47;4973093;28;4033;-80
2023/07/20 12:09:16;;;;;;;;;;;;;;;22.20;51.67;100801.22;4973421;28;3936;-77
2023/07/20 12:11:43;;;;;;;;;;;;;;;22.23;51.61;100797.03;4971574;28;4131;-76
2023/07/20 12:14:09;;;;;;;;;;;;;;;22.26;51.59;100802.19;4967356;28;4500;-78
2023/07/20 12:16:43;;;;;;;;;;;;;;;22.07;52.24;100800.75;4971037;28;4006;-77
2023/07/20 12:19:10;;;;;;;;;;;;;;;22.07;52.33;100794.22;4969159;28;4307;-76
2023/07/20 12:21:37;;;;;;;;;;;;;;;22.11;52.28;100794.41;4970516;28;4232;-77
2023/07/20 12:24:03;;;;;;;;;;;;;;;22.09;52.17;100797.19;4969731;28;4083;-76
2023/07/20 12:26:30;;;;;;;;;;;;;;;22.16;52.18;100796.03;4969378;28;4036;-75
2023/07/20 12:28:57;;;;;;;;;;;;;;;22.24;52.33;100786.94;4966903;28;4193;-76
2023/07/20 12:31:24;;;;;;;;;;;;;;;22.45;51.12;100785.56;4971485;28;4147;-78
2023/07/20 12:33:51;;;;;;;;;;;;;;;22.10;51.48;100781.38;4968005;28;4011;-79
2023/07/20 12:36:17;;;;;;;;;;;;;;;22.17;50.26;100791.72;4968902;28;6505;-72
2023/07/20 12:38:44;;;;;;;;;;;;;;;22.23;50.34;100791.25;4971706;28;4530;-73
2023/07/20 12:41:14;;;;;;;;;;;;;;;22.45;50.58;100777.66;4972536;28;4020;-78
2023/07/20 12:43:40;;;;;;;;;;;;;;;22.54;48.93;100779.44;4967654;28;4212;-72
2023/07/20 12:46:07;;;;;;;;;;;;;;;22.69;48.95;100782.81;4969290;28;4580;-75
2023/07/20 12:48:34;;;;;;;;;;;;;;;22.73;49.16;100775.06;4969230;28;4149;-74
2023/07/20 12:51:00;;;;;;;;;;;;;;;22.65;48.36;100782.66;4972535;28;4514;-80